DW3354 Weather Reports


Display with metric or nautical units.
time (UTC)temp
F
wind
direction
speed
MPH
gust
MPH
rain 1hr
in
rain 24hr
in
rain mn
in
humidity
%
barometer
mb
20181121123204 37 107 0.0 0.0 0.01 0.56 0.10 96 1019.4
20181121120204 37 107 0.0 2.0 0.01 0.60 0.10 96 1019.3
20181121113204 37 107 1.0 4.0 0.00 0.63 0.09 96 1019.3
20181121110205 36 72 1.0 6.0 0.00 0.65 0.09 96 1019.4
20181121103205 36 71 1.0 4.0 0.00 0.67 0.09 96 1019.4
20181121100204 36 71 2.0 6.0 0.00 0.68 0.09 96 1019.5
20181121093205 36 96 1.0 6.0 0.00 0.69 0.09 96 1019.6
20181121090204 36 71 1.0 5.0 0.02 0.69 0.09 96 1019.9
20181121083204 36 89 1.0 7.0 0.07 0.69 0.09 96 1019.6
20181121080204 35 74 2.0 7.0 0.04 0.66 0.06 96 1019.6
20181121073205 35 67 2.0 6.0 0.01 0.62 0.02 96 1019.5
20181121070205 35 81 3.0 10.0 0.00 0.61 0.02 95 1019.4
20181121063205 35 91 3.0 10.0 0.00 0.61 0.02 95 1019.3
20181121060204 35 88 4.0 10.0 0.01 0.61 0.02 95 1019.2
20181121053204 35 98 4.0 10.0 0.01 0.61 0.02 95 1019.0
20181121050204 35 82 4.0 13.0 0.00 0.61 0.01 95 1018.8
20181121043207 35 106 4.0 10.0 0.00 0.61 0.01 95 1019.1
20181121040204 35 101 4.0 10.0 0.00 0.61 0.01 94 1019.1
20181121033205 35 94 6.0 12.0 0.00 0.61 0.01 94 1019.4
20181121030205 35 85 6.0 13.0 0.00 0.61 0.01 95 1019.4
20181121023204 35 93 5.0 12.0 0.01 0.61 0.01 95 1019.5
20181121020205 35 96 4.0 12.0 0.01 0.61 0.01 95 1019.5
20181121013204 35 100 7.0 15.0 0.00 0.60 0.00 95 1019.9
20181121010204 35 111 6.0 13.0 0.00 0.60 0.00 95 1020.4
20181121003204 35 102 6.0 11.0 0.02 0.60 0.00 95 1020.4
20181121000204 35 94 6.0 12.0 0.04 0.59 0.59 95 1020.6
20181120233205 35 108 6.0 12.0 0.05 0.57 0.57 95 1020.4
20181120230204 35 94 6.0 12.0 0.04 0.55 0.55 95 1020.9
20181120223205 35 71 6.0 14.0 0.03 0.53 0.53 95 1021.2
20181120220204 35 66 4.0 10.0 0.03 0.51 0.51 95 1021.2
20181120213205 35 93 7.0 14.0 0.04 0.50 0.50 95 1021.4
20181120210204 35 92 6.0 13.0 0.03 0.47 0.47 95 1021.5
20181120203204 35 106 7.0 17.0 0.04 0.46 0.46 96 1021.5
20181120200204 35 105 6.0 14.0 0.05 0.44 0.44 96 1021.4
20181120193204 35 82 6.0 13.0 0.04 0.42 0.42 96 1021.7
20181120190204 35 94 5.0 12.0 0.05 0.39 0.39 96 1021.6
20181120183204 36 93 3.0 11.0 0.05 0.38 0.38 96 1021.8
20181120180204 36 86 3.0 7.0 0.03 0.35 0.35 96 1021.9
20181120173204 35 101 4.0 8.0 0.03 0.33 0.33 96 1021.7
20181120170205 35 84 3.0 9.0 0.04 0.31 0.31 96 1021.5
20181120163204 35 88 3.0 7.0 0.04 0.30 0.30 96 1021.7
20181120160204 35 81 2.0 6.0 0.02 0.28 0.28 95 1021.9
20181120153204 35 99 2.0 11.0 0.02 0.26 0.26 95 1021.7
20181120150205 35 86 3.0 9.0 0.02 0.25 0.25 95 1022.1
20181120143204 35 96 3.0 9.0 0.03 0.25 0.24 95 1022.0
20181120140205 35 86 3.0 7.0 0.04 0.26 0.23 95 1022.5
20181120133204 35 93 5.0 11.0 0.07 0.28 0.21 96 1022.6
20181120130205 35 100 5.0 12.0 0.08 0.28 0.18 96 1022.6